sensor_id;sensor_type;location;lat;lon;timestamp;pressure;altitude;pressure_sealevel;temperature;humidity
13954;BME280;7049;49.444;8.522;2023-02-18T00:02:18;78567.25;;;-3.47;100.00
13954;BME280;7049;49.444;8.522;2023-02-18T00:07:19;78556.78;;;-3.47;100.00
13954;BME280;7049;49.444;8.522;2023-02-18T00:12:21;78546.31;;;-3.47;100.00
13954;BME280;7049;49.444;8.522;2023-02-18T00:17:23;78550.50;;;-3.47;100.00
13954;BME280;7049;49.444;8.522;2023-02-18T00:22:25;78550.50;;;-3.47;100.00
13954;BME280;7049;49.444;8.522;2023-02-18T00:27:26;78550.50;;;-3.47;100.00
13954;BME280;7049;49.444;8.522;2023-02-18T00:32:29;78529.59;;;-3.47;99.84
13954;BME280;7049;49.444;8.522;2023-02-18T00:37:30;78529.59;;;-3.47;100.00
13954;BME280;7049;49.444;8.522;2023-02-18T00:42:32;78517.03;;;-3.47;99.67
13954;BME280;7049;49.444;8.522;2023-02-18T00:47:35;78523.31;;;-3.47;99.24
13954;BME280;7049;49.444;8.522;2023-02-18T00:52:36;78523.31;;;-3.47;98.61
13954;BME280;7049;49.444;8.522;2023-02-18T00:57:38;78512.84;;;-3.47;98.27
13954;BME280;7049;49.444;8.522;2023-02-18T01:02:40;78494.00;;;-3.47;97.28
13954;BME280;7049;49.444;8.522;2023-02-18T01:07:43;78498.19;;;-3.47;97.34
13954;BME280;7049;49.444;8.522;2023-02-18T01:12:44;78494.00;;;-3.47;96.61
13954;BME280;7049;49.444;8.522;2023-02-18T01:17:47;78498.19;;;-3.47;96.58
13954;BME280;7049;49.444;8.522;2023-02-18T01:22:48;78487.72;;;-3.47;95.85
13954;BME280;7049;49.444;8.522;2023-02-18T01:27:50;78504.47;;;-3.47;96.22
13954;BME280;7049;49.444;8.522;2023-02-18T01:32:52;78514.94;;;-3.47;96.42
13954;BME280;7049;49.444;8.522;2023-02-18T01:37:54;78494.00;;;-3.47;95.86
13954;BME280;7049;49.444;8.522;2023-02-18T01:42:56;78489.81;;;-3.47;95.90
13954;BME280;7049;49.444;8.522;2023-02-18T01:47:59;78481.44;;;-3.47;95.64
13954;BME280;7049;49.444;8.522;2023-02-18T01:53:01;78487.72;;;-3.47;96.31
13954;BME280;7049;49.444;8.522;2023-02-18T01:58:03;78504.47;;;-3.47;97.55
13954;BME280;7049;49.444;8.522;2023-02-18T02:03:06;78512.84;;;-3.47;98.90
13954;BME280;7049;49.444;8.522;2023-02-18T02:08:08;78506.56;;;-3.47;99.47
13954;BME280;7049;49.444;8.522;2023-02-18T02:13:14;78512.84;;;-3.47;99.92
13954;BME280;7049;49.444;8.522;2023-02-18T02:18:33;78496.09;;;-3.47;100.00
13954;BME280;7049;49.444;8.522;2023-02-18T02:24:07;78491.91;;;-3.47;100.00
13954;BME280;7049;49.444;8.522;2023-02-18T02:29:32;78479.34;;;-3.47;99.12
13954;BME280;7049;49.444;8.522;2023-02-18T02:34:48;78473.06;;;-3.47;99.25
13954;BME280;7049;49.444;8.522;2023-02-18T02:40:00;78462.63;;;-3.47;98.89
13954;BME280;7049;49.444;8.522;2023-02-18T02:45:09;78464.72;;;-3.47;99.30
13954;BME280;7049;49.444;8.522;2023-02-18T02:50:16;78462.63;;;-3.47;99.22
13954;BME280;7049;49.444;8.522;2023-02-18T02:55:19;78454.25;;;-3.47;99.54
13954;BME280;7049;49.444;8.522;2023-02-18T03:00:26;78471.00;;;-3.47;99.55
13954;BME280;7049;49.444;8.522;2023-02-18T03:05:38;78466.81;;;-3.47;100.00
13954;BME280;7049;49.444;8.522;2023-02-18T03:10:52;78456.34;;;-3.47;99.93
13954;BME280;7049;49.444;8.522;2023-02-18T03:15:59;78454.25;;;-3.47;99.30
13954;BME280;7049;49.444;8.522;2023-02-18T03:21:07;78454.25;;;-3.47;98.49
13954;BME280;7049;49.444;8.522;2023-02-18T03:26:12;78452.16;;;-3.47;97.76
13954;BME280;7049;49.444;8.522;2023-02-18T03:31:17;78443.78;;;-3.47;97.14
13954;BME280;7049;49.444;8.522;2023-02-18T03:36:22;78450.06;;;-3.47;96.75
13954;BME280;7049;49.444;8.522;2023-02-18T03:41:24;78454.25;;;-3.47;96.67
13954;BME280;7049;49.444;8.522;2023-02-18T03:46:26;78450.06;;;-3.47;96.03
13954;BME280;7049;49.444;8.522;2023-02-18T03:51:30;78475.16;;;-3.47;96.50
13954;BME280;7049;49.444;8.522;2023-02-18T03:56:32;78479.34;;;-3.47;97.42
13954;BME280;7049;49.444;8.522;2023-02-18T04:01:34;78475.16;;;-3.47;97.28
13954;BME280;7049;49.444;8.522;2023-02-18T04:06:37;78475.16;;;-3.47;97.46
13954;BME280;7049;49.444;8.522;2023-02-18T04:11:39;78479.34;;;-3.47;97.28
13954;BME280;7049;49.444;8.522;2023-02-18T04:16:41;78481.44;;;-3.47;96.50
13954;BME280;7049;49.444;8.522;2023-02-18T04:21:43;78498.19;;;-3.47;96.10
13954;BME280;7049;49.444;8.522;2023-02-18T04:26:45;78487.72;;;-3.47;94.36
13954;BME280;7049;49.444;8.522;2023-02-18T04:31:46;78462.63;;;-3.47;93.59
13954;BME280;7049;49.444;8.522;2023-02-18T04:36:49;78460.53;;;-3.47;92.49
13954;BME280;7049;49.444;8.522;2023-02-18T04:41:50;78464.72;;;-3.47;92.24
13954;BME280;7049;49.444;8.522;2023-02-18T04:46:52;78443.78;;;-3.47;90.63
13954;BME280;7049;49.444;8.522;2023-02-18T04:51:54;78445.88;;;-3.47;90.93
13954;BME280;7049;49.444;8.522;2023-02-18T04:56:56;78466.81;;;-3.47;91.36
13954;BME280;7049;49.444;8.522;2023-02-18T05:01:57;78471.00;;;-3.47;91.47
13954;BME280;7049;49.444;8.522;2023-02-18T05:07:00;78464.72;;;-3.47;91.12
13954;BME280;7049;49.444;8.522;2023-02-18T05:12:02;78479.34;;;-3.47;90.96
13954;BME280;7049;49.444;8.522;2023-02-18T05:17:03;78477.25;;;-3.47;90.44
13954;BME280;7049;49.444;8.522;2023-02-18T05:22:06;78483.53;;;-3.47;90.96
13954;BME280;7049;49.444;8.522;2023-02-18T05:27:08;78468.91;;;-3.47;90.25
13954;BME280;7049;49.444;8.522;2023-02-18T05:32:09;78471.00;;;-3.47;90.37
13954;BME280;7049;49.444;8.522;2023-02-18T05:37:12;78462.63;;;-3.47;89.39
13954;BME280;7049;49.444;8.522;2023-02-18T05:42:13;78458.44;;;-3.47;89.49
13954;BME280;7049;49.444;8.522;2023-02-18T05:47:15;78471.00;;;-3.47;90.19
13954;BME280;7049;49.444;8.522;2023-02-18T05:52:17;78475.16;;;-3.47;90.67
13954;BME280;7049;49.444;8.522;2023-02-18T05:57:19;78483.53;;;-3.47;91.51
13954;BME280;7049;49.444;8.522;2023-02-18T06:02:21;78489.81;;;-3.47;91.82
13954;BME280;7049;49.444;8.522;2023-02-18T06:07:23;78496.09;;;-3.47;92.31
13954;BME280;7049;49.444;8.522;2023-02-18T06:12:25;78494.00;;;-3.47;92.45
13954;BME280;7049;49.444;8.522;2023-02-18T06:17:26;78489.81;;;-3.47;92.98
13954;BME280;7049;49.444;8.522;2023-02-18T06:22:29;78504.47;;;-3.47;93.44
13954;BME280;7049;49.444;8.522;2023-02-18T06:27:30;78487.72;;;-3.47;92.99
13954;BME280;7049;49.444;8.522;2023-02-18T06:32:32;78471.00;;;-3.47;90.67
13954;BME280;7049;49.444;8.522;2023-02-18T06:37:34;78462.63;;;-3.47;90.77
13954;BME280;7049;49.444;8.522;2023-02-18T06:42:36;78464.72;;;-3.47;91.29
13954;BME280;7049;49.444;8.522;2023-02-18T06:47:37;78458.44;;;-3.47;90.65
13954;BME280;7049;49.444;8.522;2023-02-18T06:52:40;78445.88;;;-3.47;90.89
13954;BME280;7049;49.444;8.522;2023-02-18T06:57:42;78456.34;;;-3.47;91.68
13954;BME280;7049;49.444;8.522;2023-02-18T07:02:43;78445.88;;;-3.47;92.35
13954;BME280;7049;49.444;8.522;2023-02-18T07:07:46;78454.25;;;-3.47;92.76
13954;BME280;7049;49.444;8.522;2023-02-18T07:12:47;78445.88;;;-3.47;93.30
13954;BME280;7049;49.444;8.522;2023-02-18T07:17:49;78445.88;;;-3.47;93.70
13954;BME280;7049;49.444;8.522;2023-02-18T07:22:52;78429.13;;;-3.47;94.12
13954;BME280;7049;49.444;8.522;2023-02-18T07:27:54;78441.69;;;-3.47;94.74
13954;BME280;7049;49.444;8.522;2023-02-18T07:32:55;78424.94;;;-3.47;94.85
13954;BME280;7049;49.444;8.522;2023-02-18T07:37:58;78414.47;;;-3.47;94.61
13954;BME280;7049;49.444;8.522;2023-02-18T07:43:02;78391.47;;;-3.47;94.09
13954;BME280;7049;49.444;8.522;2023-02-18T07:48:03;78378.91;;;-3.47;94.17
13954;BME280;7049;49.444;8.522;2023-02-18T07:53:06;78366.34;;;-3.47;93.57
13954;BME280;7049;49.444;8.522;2023-02-18T07:58:08;78357.97;;;-3.47;93.84
13954;BME280;7049;49.444;8.522;2023-02-18T08:03:09;78362.16;;;-3.47;94.00
13954;BME280;7049;49.444;8.522;2023-02-18T08:08:13;78368.44;;;-3.47;94.22
13954;BME280;7049;49.444;8.522;2023-02-18T08:13:15;78362.16;;;-3.47;94.24
13954;BME280;7049;49.444;8.522;2023-02-18T08:18:18;78353.78;;;-3.47;94.19
13954;BME280;7049;49.444;8.522;2023-02-18T08:23:22;78343.31;;;-3.47;94.42
13954;BME280;7049;49.444;8.522;2023-02-18T08:28:25;78351.69;;;-3.47;94.57
13954;BME280;7049;49.444;8.522;2023-02-18T08:33:27;78357.97;;;-3.47;94.87
13954;BME280;7049;49.444;8.522;2023-02-18T08:38:29;78341.22;;;-3.47;94.48
13954;BME280;7049;49.444;8.522;2023-02-18T08:43:31;78322.41;;;-3.47;93.90
13954;BME280;7049;49.444;8.522;2023-02-18T08:48:32;78309.84;;;-3.47;92.50
13954;BME280;7049;49.444;8.522;2023-02-18T08:53:35;78303.56;;;-3.47;92.66
13954;BME280;7049;49.444;8.522;2023-02-18T08:58:36;78295.19;;;-3.47;91.25
13954;BME280;7049;49.444;8.522;2023-02-18T09:03:38;78274.25;;;-3.47;90.85
13954;BME280;7049;49.444;8.522;2023-02-18T09:08:41;78278.44;;;-3.47;90.17
13954;BME280;7049;49.444;8.522;2023-02-18T09:13:44;78278.44;;;-3.47;88.99
13954;BME280;7049;49.444;8.522;2023-02-18T09:18:47;78270.06;;;-3.47;88.36
13954;BME280;7049;49.444;8.522;2023-02-18T09:23:50;78274.25;;;-3.47;87.91
13954;BME280;7049;49.444;8.522;2023-02-18T09:28:52;78291.00;;;-3.47;88.19
13954;BME280;7049;49.444;8.522;2023-02-18T09:33:57;78274.25;;;-3.47;87.56
13954;BME280;7049;49.444;8.522;2023-02-18T09:39:00;78270.06;;;-3.47;87.26
13954;BME280;7049;49.444;8.522;2023-02-18T09:44:04;78247.06;;;-3.47;87.83
13954;BME280;7049;49.444;8.522;2023-02-18T09:49:14;78232.41;;;-3.47;85.70
13954;BME280;7049;49.444;8.522;2023-02-18T09:54:19;78224.03;;;-3.47;86.48
13954;BME280;7049;49.444;8.522;2023-02-18T09:59:21;78211.47;;;-3.47;85.65
13954;BME280;7049;49.444;8.522;2023-02-18T10:04:27;78207.28;;;-3.47;85.66
13954;BME280;7049;49.444;8.522;2023-02-18T10:09:34;78207.28;;;-3.47;85.53
13954;BME280;7049;49.444;8.522;2023-02-18T10:14:36;78190.56;;;-3.47;84.42
13954;BME280;7049;49.444;8.522;2023-02-18T10:19:38;78190.56;;;-3.47;83.68
13954;BME280;7049;49.444;8.522;2023-02-18T10:24:45;78201.00;;;-3.47;83.66
13954;BME280;7049;49.444;8.522;2023-02-18T10:29:48;78186.38;;;-3.47;81.05
13954;BME280;7049;49.444;8.522;2023-02-18T10:34:53;78194.75;;;-3.47;81.20
13954;BME280;7049;49.444;8.522;2023-02-18T10:40:03;78196.81;;;-3.47;80.50
13954;BME280;7049;49.444;8.522;2023-02-18T10:45:15;78198.91;;;-3.47;79.10
13954;BME280;7049;49.444;8.522;2023-02-18T10:50:27;78207.28;;;-3.47;79.80
13954;BME280;7049;49.444;8.522;2023-02-18T10:55:36;78226.13;;;-3.47;81.37
13954;BME280;7049;49.444;8.522;2023-02-18T11:00:38;78230.31;;;-3.47;80.08
13954;BME280;7049;49.444;8.522;2023-02-18T11:05:40;78236.59;;;-3.47;81.57
13954;BME280;7049;49.444;8.522;2023-02-18T11:10:45;78244.97;;;-3.47;81.94
13954;BME280;7049;49.444;8.522;2023-02-18T11:15:56;78253.34;;;-3.47;82.40
13954;BME280;7049;49.444;8.522;2023-02-18T11:21:00;78257.53;;;-3.47;81.71
13954;BME280;7049;49.444;8.522;2023-02-18T11:26:05;78265.88;;;-3.47;81.92
13954;BME280;7049;49.444;8.522;2023-02-18T11:31:09;78236.59;;;-3.47;77.98
13954;BME280;7049;49.444;8.522;2023-02-18T11:36:18;78247.06;;;-3.47;79.17
13954;BME280;7049;49.444;8.522;2023-02-18T11:41:29;78244.97;;;-3.47;78.73
13954;BME280;7049;49.444;8.522;2023-02-18T11:46:32;78232.41;;;-3.47;77.92
13954;BME280;7049;49.444;8.522;2023-02-18T11:51:34;78203.09;;;-3.47;75.39
13954;BME280;7049;49.444;8.522;2023-02-18T11:56:37;78207.28;;;-3.47;76.09
13954;BME280;7049;49.444;8.522;2023-02-18T12:01:43;78196.81;;;-3.47;75.61
13954;BME280;7049;49.444;8.522;2023-02-18T12:06:50;78178.00;;;-3.47;74.39
13954;BME280;7049;49.444;8.522;2023-02-18T12:11:57;78190.56;;;-3.47;75.83
13954;BME280;7049;49.444;8.522;2023-02-18T12:17:17;78180.09;;;-3.47;75.24
13954;BME280;7049;49.444;8.522;2023-02-18T12:22:25;78169.63;;;-3.47;74.61
13954;BME280;7049;49.444;8.522;2023-02-18T12:27:37;78161.25;;;-3.47;72.04
13954;BME280;7049;49.444;8.522;2023-02-18T12:32:45;78163.34;;;-3.47;71.45
13954;BME280;7049;49.444;8.522;2023-02-18T12:37:58;78157.06;;;-3.47;69.17
13954;BME280;7049;49.444;8.522;2023-02-18T12:43:09;78161.25;;;-3.47;69.13
13954;BME280;7049;49.444;8.522;2023-02-18T12:48:30;78152.88;;;-3.47;69.04
13954;BME280;7049;49.444;8.522;2023-02-18T12:53:43;78148.69;;;-3.47;68.85
13954;BME280;7049;49.444;8.522;2023-02-18T12:58:55;78161.25;;;-3.47;68.74
13954;BME280;7049;49.444;8.522;2023-02-18T13:04:27;78148.69;;;-3.47;68.76
13954;BME280;7049;49.444;8.522;2023-02-18T13:09:42;78152.88;;;-3.47;68.76
13954;BME280;7049;49.444;8.522;2023-02-18T13:14:52;78140.31;;;-3.47;69.60
13954;BME280;7049;49.444;8.522;2023-02-18T13:20:00;78123.59;;;-3.47;69.02
13954;BME280;7049;49.444;8.522;2023-02-18T13:25:03;78115.22;;;-3.47;68.35
13954;BME280;7049;49.444;8.522;2023-02-18T13:30:21;78115.22;;;-3.47;68.09
13954;BME280;7049;49.444;8.522;2023-02-18T13:35:28;78102.66;;;-3.47;66.11
13954;BME280;7049;49.444;8.522;2023-02-18T13:40:31;78075.47;;;-3.47;64.35
13954;BME280;7049;49.444;8.522;2023-02-18T13:45:34;78065.00;;;-3.47;64.67
13954;BME280;7049;49.444;8.522;2023-02-18T13:50:41;78048.25;;;-3.47;64.02
13954;BME280;7049;49.444;8.522;2023-02-18T13:55:50;78041.97;;;-3.47;63.81
13954;BME280;7049;49.444;8.522;2023-02-18T14:01:00;78018.97;;;-3.47;61.76
13954;BME280;7049;49.444;8.522;2023-02-18T14:06:12;78004.31;;;-3.47;63.21
13954;BME280;7049;49.444;8.522;2023-02-18T14:11:32;77985.47;;;-3.47;61.70
13954;BME280;7049;49.444;8.522;2023-02-18T14:22:28;77983.38;;;-3.47;61.18
13954;BME280;7049;49.444;8.522;2023-02-18T14:27:32;77989.66;;;-3.47;62.31
13954;BME280;7049;49.444;8.522;2023-02-18T14:32:33;77985.47;;;-3.47;60.98
13954;BME280;7049;49.444;8.522;2023-02-18T14:37:51;77991.75;;;-3.47;61.26
13954;BME280;7049;49.444;8.522;2023-02-18T14:43:03;78018.97;;;-3.47;61.51
13954;BME280;7049;49.444;8.522;2023-02-18T14:48:39;78023.13;;;-3.47;61.64
13954;BME280;7049;49.444;8.522;2023-02-18T14:53:44;78037.78;;;-3.47;60.70
13954;BME280;7049;49.444;8.522;2023-02-18T14:58:47;78050.34;;;-3.47;61.84
13954;BME280;7049;49.444;8.522;2023-02-18T15:03:51;78071.28;;;-3.47;62.34
13954;BME280;7049;49.444;8.522;2023-02-18T15:08:54;78083.81;;;-3.47;62.47
13954;BME280;7049;49.444;8.522;2023-02-18T15:13:56;78090.09;;;-3.47;64.06
13954;BME280;7049;49.444;8.522;2023-02-18T15:18:59;78092.19;;;-3.47;63.19
13954;BME280;7049;49.444;8.522;2023-02-18T15:24:07;78119.41;;;-3.47;64.53
13954;BME280;7049;49.444;8.522;2023-02-18T15:29:14;78119.41;;;-3.47;64.91
13954;BME280;7049;49.444;8.522;2023-02-18T15:34:29;78136.16;;;-3.47;66.11
13954;BME280;7049;49.444;8.522;2023-02-18T15:39:33;78152.88;;;-3.47;66.55
13954;BME280;7049;49.444;8.522;2023-02-18T15:44:37;78171.72;;;-3.47;67.87
13954;BME280;7049;49.444;8.522;2023-02-18T15:49:47;78175.91;;;-3.47;67.61
13954;BME280;7049;49.444;8.522;2023-02-18T15:54:52;78182.19;;;-3.47;68.79
13954;BME280;7049;49.444;8.522;2023-02-18T15:59:55;78182.19;;;-3.47;67.92
13954;BME280;7049;49.444;8.522;2023-02-18T16:04:59;78198.91;;;-3.47;68.38
13954;BME280;7049;49.444;8.522;2023-02-18T16:10:14;78211.47;;;-3.47;69.25
13954;BME280;7049;49.444;8.522;2023-02-18T16:15:23;78215.66;;;-3.47;68.50
13954;BME280;7049;49.444;8.522;2023-02-18T16:20:29;78232.41;;;-3.47;69.86
13954;BME280;7049;49.444;8.522;2023-02-18T16:25:40;78247.06;;;-3.47;69.83
13954;BME280;7049;49.444;8.522;2023-02-18T16:30:43;78255.44;;;-3.47;70.53
13954;BME280;7049;49.444;8.522;2023-02-18T16:35:45;78265.88;;;-3.47;70.34
13954;BME280;7049;49.444;8.522;2023-02-18T16:40:49;78265.88;;;-3.47;70.95
13954;BME280;7049;49.444;8.522;2023-02-18T16:45:54;78257.53;;;-3.47;71.05
13954;BME280;7049;49.444;8.522;2023-02-18T16:50:58;78276.34;;;-3.47;71.56
13954;BME280;7049;49.444;8.522;2023-02-18T16:56:02;78278.44;;;-3.47;72.07
13954;BME280;7049;49.444;8.522;2023-02-18T17:01:04;78276.34;;;-3.47;72.35
13954;BME280;7049;49.444;8.522;2023-02-18T17:06:05;78297.28;;;-3.47;73.25
13954;BME280;7049;49.444;8.522;2023-02-18T17:11:15;78307.75;;;-3.47;74.57
13954;BME280;7049;49.444;8.522;2023-02-18T17:16:18;78303.56;;;-3.47;74.81
13954;BME280;7049;49.444;8.522;2023-02-18T17:21:21;78303.56;;;-3.47;75.28
13954;BME280;7049;49.444;8.522;2023-02-18T17:26:26;78314.03;;;-3.47;75.94
13954;BME280;7049;49.444;8.522;2023-02-18T17:31:29;78320.31;;;-3.47;76.08
13954;BME280;7049;49.444;8.522;2023-02-18T17:36:31;78341.22;;;-3.47;76.05
13954;BME280;7049;49.444;8.522;2023-02-18T17:41:34;78341.22;;;-3.47;76.80
13954;BME280;7049;49.444;8.522;2023-02-18T17:46:35;78339.13;;;-3.47;77.03
13954;BME280;7049;49.444;8.522;2023-02-18T17:51:37;78349.59;;;-3.47;77.08
13954;BME280;7049;49.444;8.522;2023-02-18T17:56:40;78357.97;;;-3.47;77.77
13954;BME280;7049;49.444;8.522;2023-02-18T18:01:42;78357.97;;;-3.47;78.55
13954;BME280;7049;49.444;8.522;2023-02-18T18:06:44;78357.97;;;-3.47;78.35
13954;BME280;7049;49.444;8.522;2023-02-18T18:11:47;78353.78;;;-3.47;78.84
13954;BME280;7049;49.444;8.522;2023-02-18T18:16:48;78362.16;;;-3.47;78.92
13954;BME280;7049;49.444;8.522;2023-02-18T18:21:50;78378.91;;;-3.47;79.38
13954;BME280;7049;49.444;8.522;2023-02-18T18:26:54;78378.91;;;-3.47;79.44
13954;BME280;7049;49.444;8.522;2023-02-18T18:31:56;78393.56;;;-3.47;79.55
13954;BME280;7049;49.444;8.522;2023-02-18T18:36:57;78395.66;;;-3.47;79.53
13954;BME280;7049;49.444;8.522;2023-02-18T18:42:00;78395.66;;;-3.47;79.17
13954;BME280;7049;49.444;8.522;2023-02-18T18:47:01;78412.38;;;-3.47;79.50
13954;BME280;7049;49.444;8.522;2023-02-18T18:52:03;78416.56;;;-3.47;79.87
13954;BME280;7049;49.444;8.522;2023-02-18T18:57:06;78429.13;;;-3.47;80.06
13954;BME280;7049;49.444;8.522;2023-02-18T19:02:12;78422.84;;;-3.47;79.70
13954;BME280;7049;49.444;8.522;2023-02-18T19:07:15;78435.41;;;-3.47;80.28
13954;BME280;7049;49.444;8.522;2023-02-18T19:12:18;78450.06;;;-3.47;81.09
13954;BME280;7049;49.444;8.522;2023-02-18T19:17:20;78441.69;;;-3.47;81.12
13954;BME280;7049;49.444;8.522;2023-02-18T19:22:21;78439.59;;;-3.47;80.80
13954;BME280;7049;49.444;8.522;2023-02-18T19:27:24;78422.84;;;-3.47;80.10
13954;BME280;7049;49.444;8.522;2023-02-18T19:32:25;78433.31;;;-3.47;80.76
13954;BME280;7049;49.444;8.522;2023-02-18T19:37:30;78435.41;;;-3.47;80.72
13954;BME280;7049;49.444;8.522;2023-02-18T19:42:34;78437.50;;;-3.47;81.12
13954;BME280;7049;49.444;8.522;2023-02-18T19:47:35;78441.69;;;-3.47;81.35
13954;BME280;7049;49.444;8.522;2023-02-18T19:52:37;78450.06;;;-3.47;81.99
13954;BME280;7049;49.444;8.522;2023-02-18T19:57:39;78441.69;;;-3.47;81.57
13954;BME280;7049;49.444;8.522;2023-02-18T20:02:41;78435.41;;;-3.47;81.15
13954;BME280;7049;49.444;8.522;2023-02-18T20:07:43;78452.16;;;-3.47;81.47
13954;BME280;7049;49.444;8.522;2023-02-18T20:12:51;78447.97;;;-3.47;81.19
13954;BME280;7049;49.444;8.522;2023-02-18T20:17:53;78447.97;;;-3.47;80.94
13954;BME280;7049;49.444;8.522;2023-02-18T20:22:54;78443.78;;;-3.47;80.62
13954;BME280;7049;49.444;8.522;2023-02-18T20:27:57;78439.59;;;-3.47;79.54
13954;BME280;7049;49.444;8.522;2023-02-18T20:32:58;78456.34;;;-3.47;80.53
13954;BME280;7049;49.444;8.522;2023-02-18T20:38:00;78435.41;;;-3.47;79.73
13954;BME280;7049;49.444;8.522;2023-02-18T20:43:02;78454.25;;;-3.47;79.99
13954;BME280;7049;49.444;8.522;2023-02-18T20:48:04;78458.44;;;-3.47;80.34
13954;BME280;7049;49.444;8.522;2023-02-18T20:53:05;78466.81;;;-3.47;81.01
13954;BME280;7049;49.444;8.522;2023-02-18T20:58:08;78454.25;;;-3.47;80.25
13954;BME280;7049;49.444;8.522;2023-02-18T21:03:10;78431.22;;;-3.47;79.08
13954;BME280;7049;49.444;8.522;2023-02-18T21:08:11;78445.88;;;-3.47;79.44
13954;BME280;7049;49.444;8.522;2023-02-18T21:13:14;78447.97;;;-3.47;80.24
13954;BME280;7049;49.444;8.522;2023-02-18T21:18:17;78450.06;;;-3.47;80.38
13954;BME280;7049;49.444;8.522;2023-02-18T21:23:19;78456.34;;;-3.47;80.74
13954;BME280;7049;49.444;8.522;2023-02-18T21:28:21;78445.88;;;-3.47;80.93
13954;BME280;7049;49.444;8.522;2023-02-18T21:33:23;78456.34;;;-3.47;81.18
13954;BME280;7049;49.444;8.522;2023-02-18T21:38:25;78456.34;;;-3.47;81.60
13954;BME280;7049;49.444;8.522;2023-02-18T21:43:27;78447.97;;;-3.47;81.82
13954;BME280;7049;49.444;8.522;2023-02-18T21:48:29;78454.25;;;-3.47;82.19
13954;BME280;7049;49.444;8.522;2023-02-18T21:53:48;78460.53;;;-3.47;83.13
13954;BME280;7049;49.444;8.522;2023-02-18T21:58:52;78431.22;;;-3.47;82.21
13954;BME280;7049;49.444;8.522;2023-02-18T22:03:53;78447.97;;;-3.47;82.43
13954;BME280;7049;49.444;8.522;2023-02-18T22:08:55;78441.69;;;-3.47;82.69
13954;BME280;7049;49.444;8.522;2023-02-18T22:13:58;78443.78;;;-3.47;83.03
13954;BME280;7049;49.444;8.522;2023-02-18T22:18:59;78437.50;;;-3.47;82.88
13954;BME280;7049;49.444;8.522;2023-02-18T22:24:02;78441.69;;;-3.47;83.42
13954;BME280;7049;49.444;8.522;2023-02-18T22:29:05;78437.50;;;-3.47;83.74
13954;BME280;7049;49.444;8.522;2023-02-18T22:34:08;78420.75;;;-3.47;82.84
13954;BME280;7049;49.444;8.522;2023-02-18T22:39:11;78433.31;;;-3.47;83.30
13954;BME280;7049;49.444;8.522;2023-02-18T22:44:15;78414.47;;;-3.47;83.06
13954;BME280;7049;49.444;8.522;2023-02-18T22:49:17;78416.56;;;-3.47;83.16
13954;BME280;7049;49.444;8.522;2023-02-18T22:54:19;78410.28;;;-3.47;82.56
13954;BME280;7049;49.444;8.522;2023-02-18T22:59:22;78422.84;;;-3.47;82.91
13954;BME280;7049;49.444;8.522;2023-02-18T23:04:23;78427.03;;;-3.47;83.04
13954;BME280;7049;49.444;8.522;2023-02-18T23:09:25;78408.19;;;-3.47;82.97
13954;BME280;7049;49.444;8.522;2023-02-18T23:14:27;78420.75;;;-3.47;83.54
13954;BME280;7049;49.444;8.522;2023-02-18T23:19:30;78414.47;;;-3.47;82.97
13954;BME280;7049;49.444;8.522;2023-02-18T23:24:33;78412.38;;;-3.47;83.17
13954;BME280;7049;49.444;8.522;2023-02-18T23:29:37;78422.84;;;-3.47;83.55
13954;BME280;7049;49.444;8.522;2023-02-18T23:34:38;78429.13;;;-3.47;83.36
13954;BME280;7049;49.444;8.522;2023-02-18T23:39:40;78424.94;;;-3.47;83.07
13954;BME280;7049;49.444;8.522;2023-02-18T23:44:45;78429.13;;;-3.47;83.07
13954;BME280;7049;49.444;8.522;2023-02-18T23:49:52;78424.94;;;-3.47;83.00
13954;BME280;7049;49.444;8.522;2023-02-18T23:54:53;78416.56;;;-3.47;82.71
13954;BME280;7049;49.444;8.522;2023-02-18T23:59:56;78431.22;;;-3.47;82.96
